createdAt,value
2022-08-08T00:02:30.428Z,20.00
2022-08-08T00:05:12.854Z,19.90
2022-08-08T00:08:01.980Z,19.90
2022-08-08T00:10:49.806Z,19.90
2022-08-08T00:14:15.576Z,19.90
2022-08-08T00:17:23.503Z,19.90
2022-08-08T00:20:07.820Z,19.90
2022-08-08T00:22:47.700Z,19.90
2022-08-08T00:25:23.044Z,19.80
2022-08-08T00:27:54.711Z,19.80
2022-08-08T00:30:24.106Z,19.80
2022-08-08T00:33:02.777Z,19.70
2022-08-08T00:35:37.259Z,19.70
2022-08-08T00:38:52.175Z,19.70
2022-08-08T00:42:07.848Z,19.60
2022-08-08T00:44:59.689Z,19.60
2022-08-08T00:48:29.402Z,19.60
2022-08-08T00:51:51.018Z,19.50
2022-08-08T00:55:16.902Z,19.50
2022-08-08T00:58:32.664Z,19.50
2022-08-08T01:01:37.436Z,19.50
2022-08-08T01:05:42.531Z,19.50
2022-08-08T01:09:36.920Z,19.50
2022-08-08T01:12:29.854Z,19.50
2022-08-08T01:15:56.710Z,19.50
2022-08-08T01:18:59.175Z,19.50
2022-08-08T01:22:23.113Z,19.50
2022-08-08T01:25:42.989Z,19.50
2022-08-08T01:29:05.608Z,19.50
2022-08-08T01:32:35.039Z,19.40
2022-08-08T01:35:29.790Z,19.40
2022-08-08T01:38:27.821Z,19.30
2022-08-08T01:41:38.046Z,19.30
2022-08-08T01:44:43.540Z,19.20
2022-08-08T01:48:30.540Z,19.20
2022-08-08T01:51:31.735Z,19.20
2022-08-08T01:55:19.646Z,19.10
2022-08-08T01:59:07.866Z,19.10
2022-08-08T02:02:30.604Z,19.10
2022-08-08T02:05:55.874Z,19.10
2022-08-08T02:08:57.982Z,19.00
2022-08-08T02:11:53.088Z,19.00
2022-08-08T02:14:32.972Z,19.00
2022-08-08T02:17:20.616Z,19.00
2022-08-08T02:20:09.809Z,19.00
2022-08-08T02:23:31.594Z,18.90
2022-08-08T02:26:15.957Z,18.90
2022-08-08T02:28:53.574Z,18.90
2022-08-08T02:32:00.864Z,18.90
2022-08-08T02:35:11.988Z,18.90
2022-08-08T02:38:16.062Z,18.80
2022-08-08T02:41:17.871Z,18.90
2022-08-08T02:45:18.281Z,18.80
2022-08-08T02:48:25.938Z,18.80
2022-08-08T02:51:38.281Z,18.80
2022-08-08T02:55:02.296Z,18.80
2022-08-08T02:58:28.264Z,18.70
2022-08-08T03:01:26.702Z,18.70
2022-08-08T03:05:02.702Z,18.70
2022-08-08T03:08:38.239Z,18.70
2022-08-08T03:11:48.085Z,18.70
2022-08-08T03:15:58.741Z,18.60
2022-08-08T03:17:39.085Z,18.70
2022-08-08T03:20:08.259Z,18.60
2022-08-08T03:22:47.320Z,18.70
2022-08-08T03:25:19.291Z,18.60
2022-08-08T03:28:00.027Z,18.70
2022-08-08T03:30:32.132Z,18.70
2022-08-08T03:33:55.134Z,18.70
2022-08-08T03:36:19.478Z,18.70
2022-08-08T03:38:54.276Z,18.70
2022-08-08T03:42:27.103Z,18.70
2022-08-08T03:44:25.693Z,18.70
2022-08-08T03:46:54.133Z,18.80
2022-08-08T03:50:00.336Z,18.80
2022-08-08T03:52:14.908Z,18.90
2022-08-08T03:55:02.338Z,18.90
2022-08-08T03:58:35.042Z,18.90
2022-08-08T04:00:25.947Z,18.90
2022-08-08T04:03:11.402Z,18.90
2022-08-08T04:05:47.160Z,18.90
2022-08-08T04:08:33.227Z,18.90
2022-08-08T04:11:11.529Z,19.00
2022-08-08T04:14:03.152Z,19.00
2022-08-08T04:16:40.460Z,19.00
2022-08-08T04:19:23.988Z,19.00
2022-08-08T04:21:57.361Z,19.00
2022-08-08T04:24:29.550Z,19.00
2022-08-08T04:27:00.565Z,19.10
2022-08-08T04:29:36.632Z,19.20
2022-08-08T04:32:07.606Z,19.20
2022-08-08T04:34:49.329Z,19.30
2022-08-08T04:37:31.853Z,19.40
2022-08-08T04:40:04.991Z,19.50
2022-08-08T04:42:56.251Z,19.60
2022-08-08T04:45:26.944Z,19.70
2022-08-08T04:47:58.580Z,19.80
2022-08-08T04:50:34.192Z,19.80
2022-08-08T04:53:13.999Z,19.90
2022-08-08T04:55:56.079Z,19.90
2022-08-08T04:58:25.738Z,20.00
2022-08-08T05:00:53.417Z,20.00
2022-08-08T05:04:07.974Z,20.10
2022-08-08T05:06:12.732Z,20.10
2022-08-08T05:08:51.742Z,20.20
2022-08-08T05:11:24.538Z,20.20
2022-08-08T05:14:01.426Z,20.30
2022-08-08T05:16:51.930Z,20.40
2022-08-08T05:20:12.037Z,20.50
2022-08-08T05:22:10.212Z,20.50
2022-08-08T05:24:41.792Z,20.50
2022-08-08T05:27:16.483Z,20.60
2022-08-08T05:29:43.401Z,20.60
2022-08-08T05:32:12.841Z,20.50
2022-08-08T05:34:49.775Z,20.50
2022-08-08T05:37:39.097Z,20.50
2022-08-08T05:40:17.095Z,20.60
2022-08-08T05:42:51.707Z,20.50
2022-08-08T05:45:30.872Z,20.50
2022-08-08T05:48:08.965Z,20.50
2022-08-08T05:50:39.379Z,20.50
2022-08-08T05:53:23.038Z,20.40
2022-08-08T05:56:07.588Z,20.50
2022-08-08T05:58:56.677Z,20.50
2022-08-08T06:01:55.659Z,20.60
2022-08-08T06:04:27.419Z,20.70
2022-08-08T06:07:02.054Z,20.70
2022-08-08T06:09:59.383Z,20.80
2022-08-08T06:12:29.821Z,20.80
2022-08-08T06:15:03.268Z,20.90
2022-08-08T06:18:18.348Z,21.00
2022-08-08T06:20:25.629Z,21.00
2022-08-08T06:22:53.768Z,21.00
2022-08-08T06:26:34.554Z,21.10
2022-08-08T06:28:20.383Z,21.20
2022-08-08T06:31:01.789Z,21.30
2022-08-08T06:34:27.635Z,21.40
2022-08-08T06:36:53.944Z,21.40
2022-08-08T06:39:24.560Z,21.50
2022-08-08T06:41:59.615Z,21.60
2022-08-08T06:44:42.602Z,21.70
2022-08-08T06:47:10.679Z,21.80
2022-08-08T06:49:55.367Z,21.80
2022-08-08T06:52:27.720Z,21.90
2022-08-08T06:54:55.496Z,21.90
2022-08-08T06:57:25.045Z,22.10
2022-08-08T07:00:12.494Z,22.10
2022-08-08T07:02:46.531Z,22.20
2022-08-08T07:05:20.308Z,22.30
2022-08-08T07:08:01.508Z,22.40
2022-08-08T07:10:50.623Z,22.50
2022-08-08T07:13:25.042Z,22.70
2022-08-08T07:16:10.016Z,22.70
2022-08-08T07:19:16.487Z,22.80
2022-08-08T07:22:05.522Z,22.90
2022-08-08T07:24:59.846Z,22.90
2022-08-08T07:27:47.163Z,23.10
2022-08-08T07:30:25.754Z,23.20
2022-08-08T07:32:59.617Z,23.20
2022-08-08T07:35:30.913Z,23.30
2022-08-08T07:38:09.757Z,23.40
2022-08-08T07:40:47.247Z,23.50
2022-08-08T07:43:16.864Z,23.50
2022-08-08T07:46:18.350Z,23.60
2022-08-08T07:48:47.297Z,23.70
2022-08-08T07:51:23.047Z,23.80
2022-08-08T07:54:15.796Z,23.90
2022-08-08T07:57:36.097Z,24.00
2022-08-08T08:00:13.444Z,24.00
2022-08-08T08:03:20.647Z,24.10
2022-08-08T08:05:54.563Z,24.20
2022-08-08T08:09:06.975Z,24.20
2022-08-08T08:11:52.518Z,24.30
2022-08-08T08:14:55.725Z,24.40
2022-08-08T08:17:25.749Z,24.50
2022-08-08T08:20:04.862Z,24.60
2022-08-08T08:22:33.849Z,24.70
2022-08-08T08:25:08.095Z,24.80
2022-08-08T08:27:37.373Z,24.90
2022-08-08T08:30:07.213Z,24.90
2022-08-08T08:32:36.668Z,25.00
2022-08-08T08:35:15.318Z,25.10
2022-08-08T08:38:05.476Z,25.20
2022-08-08T08:40:31.934Z,25.20
2022-08-08T08:43:03.498Z,25.30
2022-08-08T08:45:31.715Z,25.30
2022-08-08T08:48:02.725Z,25.40
2022-08-08T08:50:37.067Z,25.50
2022-08-08T08:53:27.290Z,25.50
2022-08-08T08:56:08.434Z,25.60
2022-08-08T08:58:47.019Z,25.70
2022-08-08T09:01:26.827Z,25.70
2022-08-08T09:04:31.385Z,25.70
2022-08-08T09:06:58.588Z,25.70
2022-08-08T09:09:39.792Z,25.80
2022-08-08T09:12:25.931Z,25.90
2022-08-08T09:14:56.923Z,26.00
2022-08-08T09:17:40.989Z,26.00
2022-08-08T09:21:57.373Z,26.00
2022-08-08T09:23:01.269Z,26.00
2022-08-08T09:25:36.050Z,26.10
2022-08-08T09:28:35.381Z,26.20
2022-08-08T09:31:56.198Z,26.20
2022-08-08T09:34:32.626Z,26.30
2022-08-08T09:37:29.161Z,26.30
2022-08-08T09:40:10.849Z,26.40
2022-08-08T09:42:51.697Z,26.50
2022-08-08T09:46:03.061Z,26.50
2022-08-08T09:48:38.837Z,26.60
2022-08-08T09:51:09.705Z,26.70
2022-08-08T09:54:00.076Z,26.80
2022-08-08T09:56:40.971Z,26.90
2022-08-08T09:59:42.844Z,26.90
2022-08-08T10:02:12.519Z,27.00
2022-08-08T10:04:47.539Z,27.10
2022-08-08T10:07:16.599Z,27.20
2022-08-08T10:09:59.687Z,27.30
2022-08-08T10:12:38.770Z,27.30
2022-08-08T10:15:25.517Z,27.30
2022-08-08T10:18:05.899Z,27.40
2022-08-08T10:20:57.521Z,27.40
2022-08-08T10:23:58.485Z,27.40
2022-08-08T10:26:59.116Z,27.50
2022-08-08T10:29:59.551Z,27.60
2022-08-08T10:32:32.475Z,27.80
2022-08-08T10:35:10.615Z,27.90
2022-08-08T10:37:58.235Z,28.00
2022-08-08T10:40:32.259Z,28.10
2022-08-08T10:43:03.397Z,28.40
2022-08-08T10:45:56.109Z,28.40
2022-08-08T10:48:58.536Z,28.50
2022-08-08T10:51:31.403Z,28.60
2022-08-08T10:54:08.140Z,28.60
2022-08-08T10:56:43.321Z,28.60
2022-08-08T10:59:14.015Z,28.60
2022-08-08T11:01:49.364Z,28.60
2022-08-08T11:04:30.168Z,28.60
2022-08-08T11:07:06.616Z,28.60
2022-08-08T11:09:33.952Z,28.60
2022-08-08T11:12:13.277Z,28.60
2022-08-08T11:14:58.217Z,28.60
2022-08-08T11:17:58.836Z,28.60
2022-08-08T11:20:28.006Z,28.50
2022-08-08T11:23:05.354Z,28.50
2022-08-08T11:25:52.781Z,28.50
2022-08-08T11:28:29.115Z,28.50
2022-08-08T11:31:00.685Z,28.50
2022-08-08T11:33:51.234Z,28.50
2022-08-08T11:36:22.100Z,28.50
2022-08-08T11:38:55.182Z,28.50
2022-08-08T11:41:25.031Z,28.60
2022-08-08T11:43:57.857Z,28.60
2022-08-08T11:46:28.117Z,28.70
2022-08-08T11:48:59.061Z,28.70
2022-08-08T11:51:30.238Z,28.80
2022-08-08T11:54:31.271Z,28.80
2022-08-08T11:57:14.169Z,28.80
2022-08-08T12:00:02.622Z,28.90
2022-08-08T12:02:55.600Z,28.80
2022-08-08T12:05:36.043Z,28.80
2022-08-08T12:08:04.180Z,28.80
2022-08-08T12:10:32.065Z,28.80
2022-08-08T12:13:09.455Z,28.70
2022-08-08T12:15:46.951Z,28.80
2022-08-08T12:18:20.773Z,28.80
2022-08-08T12:20:53.411Z,28.80
2022-08-08T12:23:42.910Z,28.80
2022-08-08T12:26:28.397Z,28.80
2022-08-08T12:29:41.308Z,28.80
2022-08-08T12:32:20.292Z,28.80
2022-08-08T12:35:13.463Z,28.90
2022-08-08T12:38:01.309Z,29.00
2022-08-08T12:40:56.316Z,29.00
2022-08-08T12:43:47.977Z,29.10
2022-08-08T12:46:25.178Z,29.20
2022-08-08T12:49:20.734Z,29.30
2022-08-08T12:51:50.137Z,29.40
2022-08-08T12:54:33.438Z,29.50
2022-08-08T12:57:24.471Z,29.70
2022-08-08T13:00:05.263Z,29.80
2022-08-08T13:02:51.727Z,29.80
2022-08-08T13:05:26.766Z,29.80
2022-08-08T13:08:18.867Z,29.80
2022-08-08T13:10:56.858Z,29.80
2022-08-08T13:13:37.700Z,29.70
2022-08-08T13:16:26.029Z,29.60
2022-08-08T13:19:00.552Z,29.50
2022-08-08T13:21:48.674Z,29.50
2022-08-08T13:24:18.331Z,29.50
2022-08-08T13:27:04.404Z,29.50
2022-08-08T13:29:40.790Z,29.50
2022-08-08T13:32:10.714Z,29.50
2022-08-08T13:34:40.126Z,29.50
2022-08-08T13:37:19.748Z,29.50
2022-08-08T13:40:02.431Z,29.50
2022-08-08T13:42:30.130Z,29.50
2022-08-08T13:44:59.380Z,29.50
2022-08-08T13:47:27.422Z,29.60
2022-08-08T13:50:36.585Z,29.60
2022-08-08T13:52:51.101Z,29.70
2022-08-08T13:55:28.924Z,29.70
2022-08-08T13:58:07.948Z,29.70
2022-08-08T14:00:45.519Z,29.70
2022-08-08T14:03:47.233Z,29.80
2022-08-08T14:06:33.527Z,29.70
2022-08-08T14:08:57.853Z,29.70
2022-08-08T14:11:29.656Z,29.70
2022-08-08T14:14:00.367Z,29.60
2022-08-08T14:16:28.124Z,29.60
2022-08-08T14:18:58.203Z,29.50
2022-08-08T14:21:51.888Z,29.50
2022-08-08T14:24:32.062Z,29.40
2022-08-08T14:26:58.972Z,29.30
2022-08-08T14:29:30.611Z,29.30
2022-08-08T14:32:08.861Z,29.20
2022-08-08T14:34:42.066Z,29.10
2022-08-08T14:37:12.984Z,29.10
2022-08-08T14:40:05.748Z,29.10
2022-08-08T14:42:47.423Z,29.10
2022-08-08T14:45:33.376Z,29.10
2022-08-08T14:48:17.803Z,29.10
2022-08-08T14:51:07.615Z,29.00
2022-08-08T14:53:55.502Z,29.10
2022-08-08T14:56:25.727Z,28.80
2022-08-08T14:58:56.361Z,28.60
2022-08-08T15:01:37.233Z,28.50
2022-08-08T15:04:09.577Z,28.40
2022-08-08T15:06:37.454Z,28.30
2022-08-08T15:09:07.038Z,28.20
2022-08-08T15:11:43.326Z,28.10
2022-08-08T15:14:14.954Z,28.00
2022-08-08T15:16:44.186Z,28.00
2022-08-08T15:19:11.699Z,28.00
2022-08-08T15:21:44.612Z,27.90
2022-08-08T15:24:13.815Z,27.90
2022-08-08T15:26:43.993Z,28.00
2022-08-08T15:29:19.508Z,28.00
2022-08-08T15:32:02.759Z,28.00
2022-08-08T15:34:40.031Z,28.00
2022-08-08T15:37:07.755Z,28.00
2022-08-08T15:39:38.006Z,28.10
2022-08-08T15:42:13.225Z,28.00
2022-08-08T15:44:45.636Z,28.00
2022-08-08T15:47:15.962Z,28.00
2022-08-08T15:49:48.379Z,28.00
2022-08-08T15:52:17.714Z,28.00
2022-08-08T15:54:47.767Z,28.00
2022-08-08T15:57:15.629Z,28.10
2022-08-08T16:00:14.168Z,28.10
2022-08-08T16:02:43.967Z,28.10
2022-08-08T16:05:21.405Z,28.20
2022-08-08T16:07:51.224Z,28.20
2022-08-08T16:13:15.436Z,28.20
2022-08-08T16:13:30.733Z,28.10
2022-08-08T16:15:59.265Z,28.10
2022-08-08T16:18:32.343Z,28.10
2022-08-08T16:21:01.009Z,28.10
2022-08-08T16:23:32.478Z,28.00
2022-08-08T16:26:05.087Z,28.00
2022-08-08T16:28:44.374Z,28.00
2022-08-08T16:31:12.916Z,28.00
2022-08-08T16:33:40.653Z,28.10
2022-08-08T16:36:15.816Z,28.00
2022-08-08T16:38:47.553Z,28.00
2022-08-08T16:41:22.530Z,28.00
2022-08-08T16:43:51.861Z,28.00
2022-08-08T16:46:39.304Z,28.00
2022-08-08T16:49:09.410Z,28.10
2022-08-08T16:55:05.140Z,28.30
2022-08-08T16:55:14.001Z,28.20
2022-08-08T16:57:23.610Z,28.50
2022-08-08T17:00:04.344Z,28.70
2022-08-08T17:02:39.659Z,28.80
2022-08-08T17:05:08.662Z,28.90
2022-08-08T17:07:37.540Z,29.00
2022-08-08T17:10:11.538Z,29.00
2022-08-08T17:12:52.752Z,29.10
2022-08-08T17:15:22.971Z,29.20
2022-08-08T17:18:02.801Z,29.30
2022-08-08T17:20:39.682Z,29.40
2022-08-08T17:23:18.501Z,29.50
2022-08-08T17:25:55.420Z,29.60
2022-08-08T17:28:33.964Z,29.60
2022-08-08T17:31:43.123Z,29.60
2022-08-08T17:34:49.586Z,29.40
2022-08-08T17:37:00.766Z,29.20
2022-08-08T17:40:04.374Z,28.90
2022-08-08T17:42:18.390Z,28.70
2022-08-08T17:44:49.092Z,28.40
2022-08-08T17:47:27.425Z,28.10
2022-08-08T17:50:01.157Z,27.90
2022-08-08T17:52:34.048Z,27.70
2022-08-08T17:55:05.447Z,27.40
2022-08-08T17:57:36.439Z,27.30
2022-08-08T18:00:13.227Z,27.10
2022-08-08T18:02:58.144Z,26.90
2022-08-08T18:05:49.516Z,26.80
2022-08-08T18:08:25.114Z,26.60
2022-08-08T18:11:16.018Z,26.50
2022-08-08T18:13:47.024Z,26.40
2022-08-08T18:16:17.295Z,26.30
2022-08-08T18:18:56.223Z,26.20
2022-08-08T18:22:00.262Z,26.10
2022-08-08T18:24:19.365Z,26.00
2022-08-08T18:26:54.985Z,25.90
2022-08-08T18:29:35.231Z,25.70
2022-08-08T18:32:05.651Z,25.70
2022-08-08T18:34:35.176Z,25.60
2022-08-08T18:37:08.017Z,25.50
2022-08-08T18:39:38.487Z,25.40
2022-08-08T18:42:13.715Z,25.30
2022-08-08T18:44:42.259Z,25.30
2022-08-08T18:47:22.360Z,25.20
2022-08-08T18:49:58.764Z,25.20
2022-08-08T18:52:27.674Z,25.10
2022-08-08T18:55:00.167Z,25.00
2022-08-08T18:57:41.727Z,24.90
2022-08-08T19:00:20.372Z,24.80
2022-08-08T19:02:56.389Z,24.70
2022-08-08T19:05:34.428Z,24.70
2022-08-08T19:08:24.865Z,24.60
2022-08-08T19:11:01.618Z,24.60
2022-08-08T19:13:52.433Z,24.50
2022-08-08T19:16:19.794Z,24.50
2022-08-08T19:18:54.545Z,24.40
2022-08-08T19:21:30.889Z,24.30
2022-08-08T19:24:00.453Z,24.30
2022-08-08T19:26:30.511Z,24.30
2022-08-08T19:28:59.470Z,24.20
2022-08-08T19:31:31.517Z,24.10
2022-08-08T19:34:29.884Z,24.10
2022-08-08T19:36:53.379Z,24.00
2022-08-08T19:39:22.893Z,24.00
2022-08-08T19:41:50.515Z,23.90
2022-08-08T19:44:26.528Z,23.90
2022-08-08T19:47:05.141Z,23.90
2022-08-08T19:49:37.771Z,23.90
2022-08-08T19:52:06.947Z,23.90
2022-08-08T19:54:34.151Z,23.90
2022-08-08T19:57:04.151Z,23.80
2022-08-08T19:59:35.129Z,23.80
2022-08-08T20:02:04.730Z,23.80
2022-08-08T20:04:33.593Z,23.80
2022-08-08T20:07:05.060Z,23.70
2022-08-08T20:09:45.162Z,23.70
2022-08-08T20:12:32.633Z,23.70
2022-08-08T20:15:14.418Z,23.70
2022-08-08T20:17:46.825Z,23.70
2022-08-08T20:20:19.051Z,23.70
2022-08-08T20:22:52.673Z,23.70
2022-08-08T20:25:21.552Z,23.60
2022-08-08T20:27:49.590Z,23.60
2022-08-08T20:30:53.145Z,23.60
2022-08-08T20:33:20.117Z,23.60
2022-08-08T20:35:58.982Z,23.60
2022-08-08T20:38:32.553Z,23.60
2022-08-08T20:41:05.911Z,23.60
2022-08-08T20:43:49.853Z,23.50
2022-08-08T20:46:25.397Z,23.50
2022-08-08T20:48:55.529Z,23.50
2022-08-08T20:51:27.060Z,23.50
2022-08-08T20:54:04.212Z,23.50
2022-08-08T20:57:04.691Z,23.50
2022-08-08T20:59:29.044Z,23.40
2022-08-08T21:02:06.214Z,23.40
2022-08-08T21:04:35.551Z,23.40
2022-08-08T21:07:13.175Z,23.40
2022-08-08T21:10:01.638Z,23.40
2022-08-08T21:12:34.935Z,23.40
2022-08-08T21:15:09.622Z,23.40
2022-08-08T21:17:37.154Z,23.40
2022-08-08T21:20:05.486Z,23.40
2022-08-08T21:22:32.440Z,23.40
2022-08-08T21:24:59.359Z,23.40
2022-08-08T21:28:06.580Z,23.40
2022-08-08T21:30:18.198Z,23.40
2022-08-08T21:32:51.651Z,23.40
2022-08-08T21:36:13.818Z,23.40
2022-08-08T21:38:16.078Z,23.30
2022-08-08T21:40:55.888Z,23.30
2022-08-08T21:43:33.529Z,23.30
2022-08-08T21:48:07.952Z,23.20
2022-08-08T21:48:51.004Z,23.20
2022-08-08T21:52:09.846Z,23.20
2022-08-08T21:54:27.270Z,23.20
2022-08-08T21:56:59.940Z,23.10
2022-08-08T21:59:43.780Z,23.10
2022-08-08T22:02:16.099Z,23.10
2022-08-08T22:04:46.352Z,23.00
2022-08-08T22:07:13.363Z,23.00
2022-08-08T22:09:43.573Z,23.00
2022-08-08T22:12:14.986Z,23.00
2022-08-08T22:14:47.273Z,22.90
2022-08-08T22:17:17.162Z,22.90
2022-08-08T22:20:10.757Z,22.80
2022-08-08T22:22:37.453Z,22.80
2022-08-08T22:25:12.347Z,22.70
2022-08-08T22:28:04.167Z,22.70
2022-08-08T22:30:41.538Z,22.60
2022-08-08T22:33:22.220Z,22.60
2022-08-08T22:36:05.178Z,22.50
2022-08-08T22:38:48.892Z,22.50
2022-08-08T22:41:21.503Z,22.50
2022-08-08T22:44:02.690Z,22.50
2022-08-08T22:46:38.978Z,22.50
2022-08-08T22:49:09.175Z,22.50
2022-08-08T22:51:42.729Z,22.40
2022-08-08T22:54:31.404Z,22.40
2022-08-08T22:57:02.192Z,22.40
2022-08-08T22:59:52.770Z,22.40
2022-08-08T23:02:25.748Z,22.30
2022-08-08T23:05:01.979Z,22.30
2022-08-08T23:07:51.043Z,22.20
2022-08-08T23:10:19.825Z,22.20
2022-08-08T23:12:51.861Z,22.10
2022-08-08T23:16:38.460Z,22.00
2022-08-08T23:18:11.843Z,22.00
2022-08-08T23:20:41.122Z,21.90
2022-08-08T23:23:11.008Z,21.90
2022-08-08T23:25:47.750Z,21.80
2022-08-08T23:28:16.113Z,21.80
2022-08-08T23:30:45.784Z,21.80
2022-08-08T23:33:18.890Z,21.70
2022-08-08T23:36:07.352Z,21.70
2022-08-08T23:38:33.547Z,21.70
2022-08-08T23:41:00.479Z,21.70
2022-08-08T23:43:31.638Z,21.70
2022-08-08T23:49:04.030Z,21.70
2022-08-08T23:49:15.310Z,21.70
2022-08-08T23:52:04.610Z,21.70
2022-08-08T23:54:42.831Z,21.70
2022-08-08T23:57:26.759Z,21.70
